Time;durP1;ratioP1;P1;durP2;ratioP2;P2;SDS_P1;SDS_P2;PMS_P1;PMS_P2;Temp;Humidity;BMP_temperature;BMP_pressure;BME280_temperature;BME280_humidity;BME280_pressure;Samples;Min_cycle;Max_cycle;Signal;HPM_P1;HPM_P2
2022/06/16 00:00:27;;;;;;;;;;;20.20;67.90;;;;;;5074308;28;1733;-67
2022/06/16 00:02:53;;;;;;;;;;;20.20;67.90;;;;;;5065569;28;1632;-68
2022/06/16 00:05:20;;;;;;;;;;;20.20;67.90;;;;;;5066960;28;1574;-68
2022/06/16 00:07:45;;;;;;;;;;;20.20;67.90;;;;;;5074262;28;1459;-67
2022/06/16 00:10:11;;;;;;;;;;;20.20;67.90;;;;;;5074141;28;1668;-70
2022/06/16 00:12:38;;;;;;;;;;;20.20;67.90;;;;;;5056308;28;1951;-70
2022/06/16 00:15:03;;;;;;;;;;;20.20;67.90;;;;;;5056200;28;1421;-70
2022/06/16 00:17:29;;;;;;;;;;;20.20;67.90;;;;;;5074043;28;1565;-69
2022/06/16 00:19:54;;;;;;;;;;;20.20;67.90;;;;;;5069612;28;1585;-70
2022/06/16 00:22:20;;;;;;;;;;;20.20;67.90;;;;;;5074071;28;1709;-70
2022/06/16 00:24:45;;;;;;;;;;;20.20;68.00;;;;;;5074049;28;1484;-69
2022/06/16 00:27:11;;;;;;;;;;;20.20;67.90;;;;;;5070265;28;1434;-69
2022/06/16 00:29:36;;;;;;;;;;;20.20;68.70;;;;;;5056056;28;1663;-69
2022/06/16 00:32:02;;;;;;;;;;;20.20;68.00;;;;;;5055862;28;1964;-69
2022/06/16 00:34:27;;;;;;;;;;;20.20;67.90;;;;;;5073982;28;1351;-69
2022/06/16 00:36:53;;;;;;;;;;;20.20;67.90;;;;;;5073522;28;1708;-69
2022/06/16 00:39:18;;;;;;;;;;;20.20;67.90;;;;;;5073921;28;1403;-69
2022/06/16 00:41:44;;;;;;;;;;;20.20;67.90;;;;;;5073471;28;1710;-69
2022/06/16 00:44:17;;;;;;;;;;;20.20;67.90;;;;;;5074441;22;2365;-71
2022/06/16 00:46:42;;;;;;;;;;;20.20;68.00;;;;;;5085338;28;967;-71
2022/06/16 00:49:08;;;;;;;;;;;20.20;67.90;;;;;;5084017;28;1147;-72
2022/06/16 00:51:37;;;;;;;;;;;20.20;67.90;;;;;;5089376;28;1979;-72
2022/06/16 00:54:08;;;;;;;;;;;20.20;68.00;;;;;;5094955;28;1302;-71
2022/06/16 00:56:34;;;;;;;;;;;20.20;68.00;;;;;;5062665;28;1264;-71
2022/06/16 00:59:01;;;;;;;;;;;20.20;68.00;;;;;;5074719;28;1267;-71
2022/06/16 01:01:27;;;;;;;;;;;20.20;68.00;;;;;;5065772;28;1366;-71
2022/06/16 01:06:36;;;;;;;;;;;20.20;68.00;;;;;;5076813;28;1261;-71
2022/06/16 01:09:02;;;;;;;;;;;20.20;68.00;;;;;;5055964;28;1256;-71
2022/06/16 01:14:21;;;;;;;;;;;20.20;68.00;;;;;;5092714;28;1527;-71
2022/06/16 01:16:46;;;;;;;;;;;20.20;68.00;;;;;;5074565;28;1277;-71
2022/06/16 01:19:31;;;;;;;;;;;20.20;68.00;;;;;;5085416;28;1150;-72
2022/06/16 01:21:59;;;;;;;;;;;20.20;68.00;;;;;;5089015;28;1071;-70
2022/06/16 01:24:39;;;;;;;;;;;20.20;68.00;;;;;;5075284;28;1223;-70
2022/06/16 01:27:07;;;;;;;;;;;20.20;68.00;;;;;;5057990;28;1097;-70
2022/06/16 01:29:40;;;;;;;;;;;20.20;68.00;;;;;;5093369;28;1048;-70
2022/06/16 01:32:35;;;;;;;;;;;20.20;68.00;;;;;;5058358;28;1898;-70
2022/06/16 01:35:06;;;;;;;;;;;20.20;68.00;;;;;;5003444;28;1232;-70
2022/06/16 01:37:50;;;;;;;;;;;20.20;68.00;;;;;;5093373;28;1051;-70
2022/06/16 01:40:19;;;;;;;;;;;20.20;68.10;;;;;;5093216;28;826;-72
2022/06/16 01:42:44;;;;;;;;;;;20.20;68.10;;;;;;5088281;28;1413;-72
2022/06/16 01:45:09;;;;;;;;;;;20.20;68.10;;;;;;5099591;28;1301;-72
2022/06/16 01:47:35;;;;;;;;;;;20.20;68.10;;;;;;5098644;28;1125;-71
2022/06/16 01:50:05;;;;;;;;;;;20.20;68.10;;;;;;5081229;28;1114;-72
2022/06/16 01:52:39;;;;;;;;;;;20.20;68.10;;;;;;5074525;28;1973;-72
2022/06/16 01:55:10;;;;;;;;;;;20.20;68.10;;;;;;5083034;28;1224;-71
2022/06/16 01:57:38;;;;;;;;;;;20.20;68.10;;;;;;5062524;28;1094;-72
2022/06/16 02:00:08;;;;;;;;;;;20.20;68.10;;;;;;5063363;28;1419;-71
2022/06/16 02:02:33;;;;;;;;;;;20.20;68.10;;;;;;5092491;28;1348;-72
2022/06/16 02:05:04;;;;;;;;;;;20.20;68.10;;;;;;5084733;28;1232;-72
2022/06/16 02:07:34;;;;;;;;;;;20.20;68.10;;;;;;5060398;28;1106;-71
2022/06/16 02:10:01;;;;;;;;;;;20.20;68.10;;;;;;5075905;28;1107;-71
2022/06/16 02:15:14;;;;;;;;;;;20.20;68.10;;;;;;5090953;28;1315;-72
2022/06/16 02:17:39;;;;;;;;;;;20.20;68.10;;;;;;5087989;28;1145;-71
2022/06/16 02:20:05;;;;;;;;;;;20.20;68.10;;;;;;5073332;28;1075;-73
2022/06/16 02:22:31;;;;;;;;;;;20.20;68.10;;;;;;5088681;28;1331;-73
2022/06/16 02:24:56;;;;;;;;;;;20.20;68.20;;;;;;5078618;28;1361;-72
2022/06/16 02:27:22;;;;;;;;;;;20.20;68.20;;;;;;5086424;28;1203;-71
2022/06/16 02:29:47;;;;;;;;;;;20.20;68.20;;;;;;5080921;28;1074;-72
2022/06/16 02:32:35;;;;;;;;;;;20.20;68.20;;;;;;5086517;28;1959;-70
2022/06/16 02:35:07;;;;;;;;;;;20.20;68.90;;;;;;5109945;28;1214;-72
2022/06/16 02:37:36;;;;;;;;;;;20.20;68.10;;;;;;5082752;28;788;-71
2022/06/16 02:40:08;;;;;;;;;;;20.20;68.20;;;;;;5081867;28;949;-71
2022/06/16 02:42:39;;;;;;;;;;;20.20;68.20;;;;;;5090469;28;1187;-71
2022/06/16 02:45:07;;;;;;;;;;;20.20;68.20;;;;;;5082486;28;1463;-72
2022/06/16 02:47:48;;;;;;;;;;;20.20;68.20;;;;;;5096252;28;1153;-72
2022/06/16 02:50:21;;;;;;;;;;;20.20;68.20;;;;;;5106587;28;1077;-72
2022/06/16 02:52:48;;;;;;;;;;;20.20;68.20;;;;;;5091626;28;1969;-72
2022/06/16 02:55:22;;;;;;;;;;;20.20;68.20;;;;;;5088180;28;1297;-72
2022/06/16 02:57:48;;;;;;;;;;;20.20;68.20;;;;;;5084534;28;1090;-72
2022/06/16 03:00:15;;;;;;;;;;;20.20;68.20;;;;;;5086488;28;1162;-73
2022/06/16 03:02:41;;;;;;;;;;;20.20;68.20;;;;;;5091140;28;1153;-72
2022/06/16 03:05:07;;;;;;;;;;;20.20;69.00;;;;;;5088406;28;1248;-71
2022/06/16 03:07:36;;;;;;;;;;;20.20;68.20;;;;;;5060983;28;1301;-71
2022/06/16 03:10:02;;;;;;;;;;;20.20;68.20;;;;;;5074664;28;1161;-71
2022/06/16 03:12:27;;;;;;;;;;;20.20;68.20;;;;;;5075254;28;1973;-71
2022/06/16 03:14:53;;;;;;;;;;;20.20;68.20;;;;;;5074981;28;1335;-71
2022/06/16 03:17:18;;;;;;;;;;;20.20;68.20;;;;;;5075159;28;1124;-72
2022/06/16 03:19:44;;;;;;;;;;;20.20;68.20;;;;;;5083248;28;1118;-71
2022/06/16 03:22:10;;;;;;;;;;;20.20;68.20;;;;;;5056460;28;1336;-71
2022/06/16 03:24:35;;;;;;;;;;;20.20;68.30;;;;;;5068674;28;1285;-71
2022/06/16 03:27:01;;;;;;;;;;;20.20;68.20;;;;;;5104839;28;1106;-71
2022/06/16 03:29:26;;;;;;;;;;;20.20;68.20;;;;;;5065708;28;903;-71
2022/06/16 03:31:53;;;;;;;;;;;20.20;68.20;;;;;;5056729;28;1955;-71
2022/06/16 03:34:18;;;;;;;;;;;20.20;68.30;;;;;;5086005;28;1348;-72
2022/06/16 03:36:44;;;;;;;;;;;20.20;68.20;;;;;;5072761;28;957;-72
2022/06/16 03:39:09;;;;;;;;;;;20.20;69.00;;;;;;5057102;28;1161;-71
2022/06/16 03:41:34;;;;;;;;;;;20.20;68.20;;;;;;5092554;28;1138;-72
2022/06/16 03:44:00;;;;;;;;;;;20.20;68.30;;;;;;5104153;28;1393;-72
2022/06/16 03:46:26;;;;;;;;;;;20.20;68.30;;;;;;5059437;28;822;-71
2022/06/16 03:48:51;;;;;;;;;;;20.20;68.30;;;;;;5085356;28;1141;-72
2022/06/16 03:51:18;;;;;;;;;;;20.20;68.30;;;;;;5075163;28;1914;-72
2022/06/16 03:53:44;;;;;;;;;;;20.20;68.20;;;;;;5104997;28;1271;-72
2022/06/16 03:56:09;;;;;;;;;;;20.20;68.30;;;;;;5061562;28;1074;-72
2022/06/16 03:58:35;;;;;;;;;;;20.20;68.30;;;;;;5084802;28;1055;-72
2022/06/16 04:01:00;;;;;;;;;;;20.20;68.30;;;;;;5075539;28;1115;-71
2022/06/16 04:06:13;;;;;;;;;;;20.20;68.30;;;;;;5093765;28;1181;-72
2022/06/16 04:08:39;;;;;;;;;;;20.20;68.30;;;;;;5089444;28;1079;-72
2022/06/16 04:11:26;;;;;;;;;;;20.20;68.30;;;;;;5062159;28;1395;-71
2022/06/16 04:13:49;;;;;;;;;;;20.20;68.30;;;;;;5078837;28;1286;-72
2022/06/16 04:16:15;;;;;;;;;;;20.20;68.30;;;;;;5102976;28;1050;-72
2022/06/16 04:18:41;;;;;;;;;;;20.20;68.30;;;;;;5077774;28;1174;-72
2022/06/16 04:21:06;;;;;;;;;;;20.20;68.30;;;;;;5072960;28;1083;-72
2022/06/16 04:23:31;;;;;;;;;;;20.20;68.30;;;;;;5073645;28;1276;-72
2022/06/16 04:25:57;;;;;;;;;;;20.20;68.30;;;;;;5064615;28;1288;-72
2022/06/16 04:28:22;;;;;;;;;;;20.20;68.30;;;;;;5077551;28;1122;-72
2022/06/16 04:30:48;;;;;;;;;;;20.20;68.30;;;;;;5054852;28;1012;-72
2022/06/16 04:33:13;;;;;;;;;;;20.20;68.30;;;;;;5075792;28;1894;-72
2022/06/16 04:35:40;;;;;;;;;;;20.20;68.40;;;;;;5093356;28;1572;-72
2022/06/16 04:38:05;;;;;;;;;;;20.20;68.30;;;;;;5094104;28;822;-72
2022/06/16 04:40:30;;;;;;;;;;;20.20;68.30;;;;;;5093614;28;993;-72
2022/06/16 04:42:56;;;;;;;;;;;20.20;68.40;;;;;;5060062;28;902;-72
2022/06/16 04:45:22;;;;;;;;;;;20.20;69.10;;;;;;5064591;28;1187;-72
2022/06/16 04:47:48;;;;;;;;;;;20.20;68.40;;;;;;5091460;28;1091;-72
2022/06/16 04:50:17;;;;;;;;;;;20.20;68.40;;;;;;5114180;28;893;-72
2022/06/16 04:52:42;;;;;;;;;;;20.20;68.40;;;;;;5080056;28;1965;-72
2022/06/16 04:55:08;;;;;;;;;;;20.20;68.40;;;;;;5075619;28;1162;-72
2022/06/16 04:57:34;;;;;;;;;;;20.20;68.40;;;;;;5059673;28;1069;-72
2022/06/16 04:59:59;;;;;;;;;;;20.20;68.40;;;;;;5055428;28;851;-72
2022/06/16 05:02:24;;;;;;;;;;;20.20;68.40;;;;;;5086148;28;1044;-72
2022/06/16 05:04:50;;;;;;;;;;;20.20;68.40;;;;;;5082893;28;1213;-72
2022/06/16 05:07:15;;;;;;;;;;;20.20;68.40;;;;;;5093303;28;1300;-72
2022/06/16 05:09:41;;;;;;;;;;;20.20;68.40;;;;;;5092055;28;1316;-71
2022/06/16 05:12:07;;;;;;;;;;;20.20;68.40;;;;;;5074441;28;1965;-72
2022/06/16 05:14:32;;;;;;;;;;;20.20;68.40;;;;;;5092826;28;1259;-72
2022/06/16 05:16:57;;;;;;;;;;;20.20;68.40;;;;;;5093059;28;1051;-72
2022/06/16 05:19:23;;;;;;;;;;;20.20;68.40;;;;;;5083695;28;1071;-72
2022/06/16 05:21:48;;;;;;;;;;;20.20;68.40;;;;;;5073935;28;995;-72
2022/06/16 05:24:14;;;;;;;;;;;20.20;68.40;;;;;;5074304;28;1345;-70
2022/06/16 05:26:39;;;;;;;;;;;20.20;68.40;;;;;;5072575;28;1184;-72
2022/06/16 05:29:05;;;;;;;;;;;20.20;68.40;;;;;;5072326;28;1330;-72
2022/06/16 05:31:30;;;;;;;;;;;20.20;68.40;;;;;;5053484;28;1898;-70
2022/06/16 05:33:56;;;;;;;;;;;20.20;68.40;;;;;;5054589;28;1259;-71
2022/06/16 05:36:21;;;;;;;;;;;20.20;67.70;;;;;;5074019;28;1327;-70
2022/06/16 05:38:47;;;;;;;;;;;20.20;66.30;;;;;;5074142;28;1411;-70
2022/06/16 05:41:13;;;;;;;;;;;20.20;66.30;;;;;;5091887;28;1039;-70
2022/06/16 05:43:39;;;;;;;;;;;20.20;66.60;;;;;;5092553;28;1086;-70
2022/06/16 05:46:05;;;;;;;;;;;20.20;66.10;;;;;;5057052;28;1881;-69
2022/06/16 05:48:31;;;;;;;;;;;20.20;66.00;;;;;;5069983;28;1139;-68
2022/06/16 05:51:01;;;;;;;;;;;20.20;66.10;;;;;;5066868;28;1267;-68
2022/06/16 05:53:27;;;;;;;;;;;20.20;65.90;;;;;;5064242;28;1898;-67
2022/06/16 05:55:52;;;;;;;;;;;20.20;66.10;;;;;;5052982;28;1290;-70
2022/06/16 05:58:18;;;;;;;;;;;20.20;65.90;;;;;;5070939;28;1264;-70
2022/06/16 06:00:43;;;;;;;;;;;20.10;65.60;;;;;;5070221;28;1319;-71
2022/06/16 06:03:09;;;;;;;;;;;20.20;65.50;;;;;;5052949;28;1286;-70
2022/06/16 06:05:35;;;;;;;;;;;20.20;65.50;;;;;;5070744;28;1254;-70
2022/06/16 06:16:25;;;;;;;;;;;20.20;65.40;;;;;;5080541;28;1043;-70
2022/06/16 06:18:51;;;;;;;;;;;20.20;65.60;;;;;;5076031;28;1055;-68
2022/06/16 06:21:16;;;;;;;;;;;20.20;65.30;;;;;;5057199;28;1371;-68
2022/06/16 06:23:42;;;;;;;;;;;20.20;65.00;;;;;;5075686;28;1328;-69
2022/06/16 06:26:09;;;;;;;;;;;20.20;65.00;;;;;;5086538;28;1344;-69
2022/06/16 06:28:35;;;;;;;;;;;20.20;64.90;;;;;;5060068;28;1067;-68
2022/06/16 06:31:00;;;;;;;;;;;20.20;64.90;;;;;;5074829;28;1262;-69
2022/06/16 06:33:26;;;;;;;;;;;20.20;64.90;;;;;;5075693;28;1907;-69
2022/06/16 06:35:51;;;;;;;;;;;20.20;65.00;;;;;;5068132;28;1589;-69
2022/06/16 06:38:16;;;;;;;;;;;20.20;64.80;;;;;;5095722;28;1311;-69
2022/06/16 06:40:42;;;;;;;;;;;20.20;65.00;;;;;;5076923;28;1277;-69
2022/06/16 06:43:07;;;;;;;;;;;20.20;64.70;;;;;;5077189;28;1249;-70
2022/06/16 06:45:33;;;;;;;;;;;20.20;64.90;;;;;;5115610;22;3651;-69
2022/06/16 06:47:59;;;;;;;;;;;20.20;64.80;;;;;;5094832;28;1542;-69
2022/06/16 06:50:25;;;;;;;;;;;20.20;65.00;;;;;;5095730;28;1090;-69
2022/06/16 06:52:51;;;;;;;;;;;20.20;64.80;;;;;;5095666;28;1983;-70
2022/06/16 06:55:16;;;;;;;;;;;20.20;65.40;;;;;;5077260;28;1371;-68
2022/06/16 06:57:42;;;;;;;;;;;20.20;64.50;;;;;;5077546;28;1294;-69
2022/06/16 07:00:08;;;;;;;;;;;20.20;64.80;;;;;;5060276;28;1328;-69
2022/06/16 07:02:33;;;;;;;;;;;20.20;64.50;;;;;;5095505;28;1352;-69
2022/06/16 07:04:58;;;;;;;;;;;20.20;64.50;;;;;;5095558;28;1330;-69
2022/06/16 07:07:24;;;;;;;;;;;20.20;64.60;;;;;;5095330;28;1296;-68
2022/06/16 07:09:49;;;;;;;;;;;20.20;64.80;;;;;;5077247;28;1291;-68
2022/06/16 07:12:15;;;;;;;;;;;20.20;64.80;;;;;;5077028;28;1890;-69
2022/06/16 07:14:41;;;;;;;;;;;20.20;64.00;;;;;;5095276;28;1436;-68
2022/06/16 07:17:06;;;;;;;;;;;20.20;63.00;;;;;;5077172;28;1353;-69
2022/06/16 07:19:34;;;;;;;;;;;20.20;63.20;;;;;;5067682;28;1224;-68
2022/06/16 07:22:00;;;;;;;;;;;20.20;63.20;;;;;;5074714;28;1312;-68
2022/06/16 07:24:25;;;;;;;;;;;20.20;63.90;;;;;;5074159;28;1347;-68
2022/06/16 07:26:51;;;;;;;;;;;20.20;63.70;;;;;;5076796;28;1317;-68
2022/06/16 07:29:16;;;;;;;;;;;20.20;63.70;;;;;;5074571;28;1334;-68
2022/06/16 07:31:41;;;;;;;;;;;20.20;64.10;;;;;;5074459;28;1965;-69
2022/06/16 07:34:07;;;;;;;;;;;20.20;64.10;;;;;;5074887;28;1321;-68
2022/06/16 07:36:32;;;;;;;;;;;20.20;64.00;;;;;;5075012;28;1664;-69
2022/06/16 07:38:58;;;;;;;;;;;20.20;64.20;;;;;;5074691;28;1335;-69
2022/06/16 07:41:34;;;;;;;;;;;20.20;63.60;;;;;;5074515;28;1053;-69
2022/06/16 07:44:26;;;;;;;;;;;20.20;64.10;;;;;;5074336;28;1267;-69
2022/06/16 07:46:51;;;;;;;;;;;20.20;64.30;;;;;;5071235;28;1175;-68
2022/06/16 07:49:22;;;;;;;;;;;20.20;64.20;;;;;;5074502;28;1264;-69
2022/06/16 07:51:48;;;;;;;;;;;20.20;64.30;;;;;;5056868;28;1961;-69
2022/06/16 07:54:14;;;;;;;;;;;20.30;64.50;;;;;;5074241;28;1329;-69
2022/06/16 07:56:40;;;;;;;;;;;20.20;64.50;;;;;;5074468;28;1079;-69
2022/06/16 07:59:05;;;;;;;;;;;20.20;64.30;;;;;;5074484;28;1074;-69
2022/06/16 08:01:31;;;;;;;;;;;20.20;64.20;;;;;;5074114;28;1384;-69
2022/06/16 08:03:56;;;;;;;;;;;20.20;63.80;;;;;;5074172;28;1258;-68
2022/06/16 08:06:26;;;;;;;;;;;20.30;63.90;;;;;;5074101;28;1375;-69
2022/06/16 08:08:52;;;;;;;;;;;20.30;63.80;;;;;;5056660;28;1279;-69
2022/06/16 08:14:02;;;;;;;;;;;20.30;63.60;;;;;;5094255;28;1414;-68
2022/06/16 08:16:30;;;;;;;;;;;20.30;63.40;;;;;;5094213;28;1295;-68
2022/06/16 08:18:56;;;;;;;;;;;20.30;63.20;;;;;;5085786;28;1238;-68
2022/06/16 08:21:21;;;;;;;;;;;20.30;62.70;;;;;;5056018;28;1143;-68
2022/06/16 08:23:47;;;;;;;;;;;20.30;63.10;;;;;;5073814;28;1270;-69
2022/06/16 08:26:12;;;;;;;;;;;20.30;62.80;;;;;;5072159;28;1370;-68
2022/06/16 08:28:38;;;;;;;;;;;20.30;63.10;;;;;;5072529;28;1329;-68
2022/06/16 08:31:04;;;;;;;;;;;20.30;63.10;;;;;;5073612;28;1289;-68
2022/06/16 08:33:29;;;;;;;;;;;20.30;62.50;;;;;;5055648;28;1898;-68
2022/06/16 08:35:55;;;;;;;;;;;20.30;62.30;;;;;;5055371;28;1641;-68
2022/06/16 08:38:20;;;;;;;;;;;20.40;62.40;;;;;;5073519;28;1282;-68
2022/06/16 08:40:46;;;;;;;;;;;20.40;61.70;;;;;;5055178;28;1329;-68
2022/06/16 08:43:31;;;;;;;;;;;20.40;62.10;;;;;;5054005;28;1906;-69
2022/06/16 08:45:57;;;;;;;;;;;20.40;62.30;;;;;;5070353;28;1351;-69
2022/06/16 08:48:38;;;;;;;;;;;20.40;62.40;;;;;;5050834;28;1520;-67
2022/06/16 08:51:06;;;;;;;;;;;20.40;62.30;;;;;;5072910;28;1311;-69
2022/06/16 08:53:35;;;;;;;;;;;20.40;62.60;;;;;;5054772;28;2193;-69
2022/06/16 08:56:04;;;;;;;;;;;20.40;62.20;;;;;;5079430;28;1376;-69
2022/06/16 08:58:30;;;;;;;;;;;20.40;62.30;;;;;;5048216;28;2108;-70
2022/06/16 09:00:56;;;;;;;;;;;20.40;62.60;;;;;;5069554;28;1285;-71
2022/06/16 09:03:28;;;;;;;;;;;20.40;63.60;;;;;;5056421;28;1161;-71
2022/06/16 09:06:00;;;;;;;;;;;20.40;63.90;;;;;;5071987;28;1899;-70
2022/06/16 09:08:36;;;;;;;;;;;20.40;64.30;;;;;;5062374;28;2274;-71
2022/06/16 09:11:05;;;;;;;;;;;20.40;64.50;;;;;;5069297;28;1096;-70
2022/06/16 09:13:50;;;;;;;;;;;20.40;64.70;;;;;;5054956;28;1964;-70
2022/06/16 09:16:26;;;;;;;;;;;20.40;65.00;;;;;;5072832;28;1198;-70
2022/06/16 09:18:58;;;;;;;;;;;20.40;65.30;;;;;;5058273;28;1283;-71
2022/06/16 09:21:23;;;;;;;;;;;20.40;65.40;;;;;;5092850;28;1089;-70
2022/06/16 09:23:52;;;;;;;;;;;20.30;65.40;;;;;;5087545;28;1062;-71
2022/06/16 09:26:24;;;;;;;;;;;20.30;65.50;;;;;;5070480;28;1390;-70
2022/06/16 09:28:58;;;;;;;;;;;20.30;65.60;;;;;;5071267;28;1415;-71
2022/06/16 09:31:25;;;;;;;;;;;20.30;65.60;;;;;;5071298;28;1897;-70
2022/06/16 09:33:51;;;;;;;;;;;20.30;65.70;;;;;;5054898;28;1361;-71
2022/06/16 09:36:24;;;;;;;;;;;20.30;65.60;;;;;;5066661;28;1913;-70
2022/06/16 09:38:56;;;;;;;;;;;20.30;65.70;;;;;;5071309;28;1265;-70
2022/06/16 09:44:08;;;;;;;;;;;20.30;65.80;;;;;;5072702;28;1258;-71
2022/06/16 09:46:38;;;;;;;;;;;20.30;65.90;;;;;;5054304;28;1621;-70
2022/06/16 09:49:05;;;;;;;;;;;20.30;66.00;;;;;;5068621;28;1228;-71
2022/06/16 09:51:39;;;;;;;;;;;20.30;66.00;;;;;;5054234;28;1910;-70
2022/06/16 09:54:15;;;;;;;;;;;20.30;66.00;;;;;;5072320;28;1249;-71
2022/06/16 09:56:40;;;;;;;;;;;20.30;66.10;;;;;;5054621;28;1272;-70
2022/06/16 09:59:09;;;;;;;;;;;20.30;66.10;;;;;;5072425;28;1113;-70
2022/06/16 10:01:37;;;;;;;;;;;20.30;66.90;;;;;;5054116;28;1251;-70
2022/06/16 10:04:04;;;;;;;;;;;20.30;66.10;;;;;;5054599;28;1414;-69
2022/06/16 10:06:53;;;;;;;;;;;20.30;66.20;;;;;;5054610;28;1275;-69
2022/06/16 10:09:21;;;;;;;;;;;20.30;66.20;;;;;;5054283;28;1273;-69
2022/06/16 10:11:46;;;;;;;;;;;20.30;66.30;;;;;;5053826;28;1894;-69
2022/06/16 10:14:21;;;;;;;;;;;20.30;66.40;;;;;;5054193;28;1171;-69
2022/06/16 10:16:49;;;;;;;;;;;20.30;66.40;;;;;;5054460;28;1290;-69
2022/06/16 10:19:15;;;;;;;;;;;20.30;66.50;;;;;;5072160;28;1190;-69
2022/06/16 10:21:40;;;;;;;;;;;20.30;66.50;;;;;;5054196;28;1247;-69
2022/06/16 10:24:06;;;;;;;;;;;20.30;66.60;;;;;;5072005;28;1131;-69
2022/06/16 10:26:32;;;;;;;;;;;20.30;66.60;;;;;;5054971;28;1502;-69
2022/06/16 10:29:04;;;;;;;;;;;20.30;66.60;;;;;;5072076;28;1306;-70
2022/06/16 10:31:37;;;;;;;;;;;20.30;66.60;;;;;;5035408;28;1909;-69
2022/06/16 10:34:03;;;;;;;;;;;20.30;66.60;;;;;;5054258;28;1265;-69
2022/06/16 10:36:28;;;;;;;;;;;20.30;66.60;;;;;;5037333;28;1346;-69
2022/06/16 10:39:08;;;;;;;;;;;20.30;66.70;;;;;;5053976;28;1310;-69
2022/06/16 10:41:40;;;;;;;;;;;20.30;66.70;;;;;;5053948;28;1262;-70
2022/06/16 10:44:06;;;;;;;;;;;20.30;66.80;;;;;;5054305;28;1188;-70
2022/06/16 10:46:32;;;;;;;;;;;20.30;66.80;;;;;;5054017;28;1478;-70
2022/06/16 10:49:00;;;;;;;;;;;20.30;66.80;;;;;;5053920;28;1423;-70
2022/06/16 10:51:26;;;;;;;;;;;20.30;66.80;;;;;;5053812;28;1910;-69
2022/06/16 10:54:01;;;;;;;;;;;20.30;66.90;;;;;;5054011;28;1275;-69
2022/06/16 10:56:27;;;;;;;;;;;20.30;66.80;;;;;;5072141;28;1577;-69
2022/06/16 10:58:59;;;;;;;;;;;20.30;66.80;;;;;;5071876;28;1260;-69
2022/06/16 11:01:28;;;;;;;;;;;20.30;66.90;;;;;;5056488;28;1296;-69
2022/06/16 11:04:02;;;;;;;;;;;20.30;66.90;;;;;;5056968;28;1306;-69
2022/06/16 11:06:28;;;;;;;;;;;20.30;66.90;;;;;;5037467;28;1686;-69
2022/06/16 11:09:00;;;;;;;;;;;20.30;67.00;;;;;;5069614;28;1343;-69
2022/06/16 11:11:43;;;;;;;;;;;20.30;66.90;;;;;;5052613;28;1811;-69
2022/06/16 11:14:30;;;;;;;;;;;20.30;66.90;;;;;;5065935;28;1288;-69
2022/06/16 11:16:56;;;;;;;;;;;20.30;66.90;;;;;;5057359;28;1191;-69
2022/06/16 11:19:24;;;;;;;;;;;20.30;66.90;;;;;;5083262;28;1115;-69
2022/06/16 11:21:50;;;;;;;;;;;20.30;66.80;;;;;;5062187;28;1270;-69
2022/06/16 11:24:33;;;;;;;;;;;20.30;66.90;;;;;;5057000;28;1394;-69
2022/06/16 11:27:09;;;;;;;;;;;20.30;66.90;;;;;;5075887;28;1286;-69
2022/06/16 11:29:35;;;;;;;;;;;20.20;66.80;;;;;;5077145;28;1350;-69
2022/06/16 11:32:10;;;;;;;;;;;20.30;67.00;;;;;;5094947;28;1964;-70
2022/06/16 11:34:36;;;;;;;;;;;20.30;66.90;;;;;;5076894;28;1433;-70
2022/06/16 11:37:01;;;;;;;;;;;20.30;66.90;;;;;;5056999;28;1340;-70
2022/06/16 11:39:46;;;;;;;;;;;20.30;67.00;;;;;;5074851;28;1292;-70
2022/06/16 11:42:30;;;;;;;;;;;20.30;67.00;;;;;;5074747;28;1386;-70
2022/06/16 11:44:56;;;;;;;;;;;20.30;67.00;;;;;;5074563;28;1351;-70
2022/06/16 11:47:37;;;;;;;;;;;20.30;67.10;;;;;;5074787;28;1309;-69
2022/06/16 11:50:17;;;;;;;;;;;20.20;67.80;;;;;;5074516;28;1272;-70
2022/06/16 11:52:46;;;;;;;;;;;20.30;67.20;;;;;;5074738;28;1949;-69
2022/06/16 11:55:26;;;;;;;;;;;20.20;67.20;;;;;;5055761;28;1291;-70
2022/06/16 11:58:11;;;;;;;;;;;20.30;67.30;;;;;;5074241;28;1144;-70
2022/06/16 12:00:39;;;;;;;;;;;20.30;67.30;;;;;;5074404;28;1278;-70
2022/06/16 12:03:04;;;;;;;;;;;20.30;67.20;;;;;;5074589;28;1321;-70
2022/06/16 12:05:46;;;;;;;;;;;20.30;67.20;;;;;;5074432;28;1223;-70
2022/06/16 12:08:26;;;;;;;;;;;20.30;67.40;;;;;;5052037;28;1079;-69
2022/06/16 12:10:53;;;;;;;;;;;20.30;67.40;;;;;;5042406;28;1326;-70
2022/06/16 12:13:37;;;;;;;;;;;20.20;67.20;;;;;;5073955;28;1902;-70
2022/06/16 12:16:06;;;;;;;;;;;20.20;67.20;;;;;;5072217;28;1356;-70
2022/06/16 12:18:44;;;;;;;;;;;20.30;67.30;;;;;;5053272;28;1857;-70
2022/06/16 12:21:19;;;;;;;;;;;20.30;67.40;;;;;;5073200;28;1112;-70
2022/06/16 12:23:57;;;;;;;;;;;20.30;67.30;;;;;;5072970;28;1374;-70
2022/06/16 12:26:41;;;;;;;;;;;20.30;67.40;;;;;;5069881;28;1379;-70
2022/06/16 12:29:18;;;;;;;;;;;20.20;67.40;;;;;;5062662;28;1278;-70
2022/06/16 12:32:02;;;;;;;;;;;20.20;67.30;;;;;;5073963;28;1898;-70
2022/06/16 12:34:28;;;;;;;;;;;20.30;67.40;;;;;;5073671;28;1250;-69
2022/06/16 12:36:54;;;;;;;;;;;20.30;67.40;;;;;;5093399;28;2008;-69
2022/06/16 12:39:24;;;;;;;;;;;20.30;67.50;;;;;;5075823;28;1310;-69
2022/06/16 12:41:50;;;;;;;;;;;20.30;67.50;;;;;;5093534;28;1296;-69
2022/06/16 12:44:17;;;;;;;;;;;20.30;67.50;;;;;;5075796;28;1282;-69
2022/06/16 12:47:04;;;;;;;;;;;20.30;67.50;;;;;;5059486;28;1419;-69
2022/06/16 12:49:42;;;;;;;;;;;20.30;67.50;;;;;;5093579;28;1093;-70
2022/06/16 12:52:09;;;;;;;;;;;20.30;67.50;;;;;;5075343;28;1957;-69
2022/06/16 12:54:39;;;;;;;;;;;20.30;67.50;;;;;;5075369;28;1275;-69
2022/06/16 12:57:06;;;;;;;;;;;20.30;67.60;;;;;;5075780;28;1308;-69
2022/06/16 12:59:33;;;;;;;;;;;20.30;67.60;;;;;;5075466;28;1341;-69
2022/06/16 13:01:59;;;;;;;;;;;20.30;67.50;;;;;;5075403;28;1295;-69
2022/06/16 13:04:25;;;;;;;;;;;20.30;67.50;;;;;;5075374;28;1315;-69
2022/06/16 13:06:51;;;;;;;;;;;20.30;67.60;;;;;;5075562;28;1363;-69
2022/06/16 13:09:16;;;;;;;;;;;20.30;67.60;;;;;;5075554;28;1544;-69
2022/06/16 13:11:53;;;;;;;;;;;20.30;67.60;;;;;;5093071;28;1939;-69
2022/06/16 13:14:32;;;;;;;;;;;20.30;67.60;;;;;;5075202;28;1329;-69
2022/06/16 13:17:02;;;;;;;;;;;20.30;67.60;;;;;;5075217;28;1364;-69
2022/06/16 13:19:39;;;;;;;;;;;20.30;67.60;;;;;;5066853;28;1150;-69
2022/06/16 13:22:05;;;;;;;;;;;20.30;67.60;;;;;;5069480;28;1331;-69
2022/06/16 13:24:54;;;;;;;;;;;20.30;67.60;;;;;;5071882;28;1366;-69
2022/06/16 13:27:24;;;;;;;;;;;20.30;67.60;;;;;;5072759;28;1099;-71
2022/06/16 13:29:49;;;;;;;;;;;20.30;67.60;;;;;;5054326;28;1291;-71
2022/06/16 13:32:20;;;;;;;;;;;20.30;67.60;;;;;;5072619;28;1909;-70
2022/06/16 13:34:53;;;;;;;;;;;20.30;67.70;;;;;;5072665;28;1461;-72
2022/06/16 13:37:25;;;;;;;;;;;20.30;67.70;;;;;;5054853;28;1310;-71
2022/06/16 13:39:50;;;;;;;;;;;20.30;67.70;;;;;;5054458;28;1276;-71
2022/06/16 13:42:17;;;;;;;;;;;20.30;67.70;;;;;;5072575;28;1286;-71
2022/06/16 13:45:14;;;;;;;;;;;20.30;67.70;;;;;;5072518;28;1361;-71
2022/06/16 13:47:43;;;;;;;;;;;20.30;67.80;;;;;;5072505;28;1294;-69
2022/06/16 13:50:17;;;;;;;;;;;20.30;67.80;;;;;;5054822;28;1310;-70
2022/06/16 13:52:43;;;;;;;;;;;20.30;67.80;;;;;;5054460;28;1898;-71
2022/06/16 13:55:13;;;;;;;;;;;20.30;67.80;;;;;;5034606;28;1313;-72
2022/06/16 13:57:39;;;;;;;;;;;20.30;67.90;;;;;;5050096;28;1447;-70
2022/06/16 14:00:06;;;;;;;;;;;20.30;67.80;;;;;;5072311;28;1359;-70
2022/06/16 14:02:32;;;;;;;;;;;20.30;67.80;;;;;;5054782;28;1355;-69
2022/06/16 14:05:03;;;;;;;;;;;20.30;67.80;;;;;;5054331;28;1406;-69
2022/06/16 14:07:55;;;;;;;;;;;20.30;67.80;;;;;;5054907;28;1363;-70
2022/06/16 14:10:28;;;;;;;;;;;20.30;67.80;;;;;;5068953;28;1378;-70
2022/06/16 14:12:53;;;;;;;;;;;20.30;67.90;;;;;;5072473;28;1902;-71
2022/06/16 14:15:39;;;;;;;;;;;20.30;67.90;;;;;;5072191;28;1276;-70
2022/06/16 14:18:13;;;;;;;;;;;20.30;67.90;;;;;;5071165;28;1344;-70
2022/06/16 14:20:39;;;;;;;;;;;20.30;67.90;;;;;;5069931;28;1454;-70
2022/06/16 14:23:07;;;;;;;;;;;20.30;67.90;;;;;;5072421;28;1357;-69
2022/06/16 14:25:37;;;;;;;;;;;20.30;67.90;;;;;;5054477;28;1290;-70
2022/06/16 14:28:04;;;;;;;;;;;20.30;67.90;;;;;;5057662;28;1186;-70
2022/06/16 14:31:08;;;;;;;;;;;20.30;67.90;;;;;;5053993;28;1242;-70
2022/06/16 14:33:44;;;;;;;;;;;20.30;67.90;;;;;;4992127;28;1955;-70
2022/06/16 14:36:12;;;;;;;;;;;20.30;67.90;;;;;;4990709;28;1387;-69
2022/06/16 14:38:40;;;;;;;;;;;20.30;68.00;;;;;;5035481;28;1278;-68
2022/06/16 14:41:24;;;;;;;;;;;20.30;67.90;;;;;;5075679;28;1333;-68
2022/06/16 14:43:53;;;;;;;;;;;20.30;67.90;;;;;;5058364;28;1345;-68
2022/06/16 14:46:21;;;;;;;;;;;20.30;67.90;;;;;;5057980;28;1654;-68
2022/06/16 14:48:47;;;;;;;;;;;20.30;67.90;;;;;;5057875;28;1389;-69
2022/06/16 14:51:16;;;;;;;;;;;20.30;67.90;;;;;;5058364;28;1296;-69
2022/06/16 14:53:47;;;;;;;;;;;20.30;67.90;;;;;;5077429;28;1963;-70
2022/06/16 14:56:13;;;;;;;;;;;20.30;67.90;;;;;;5077520;28;1331;-69
2022/06/16 14:58:49;;;;;;;;;;;20.30;68.00;;;;;;5077834;28;1369;-69
2022/06/16 15:01:15;;;;;;;;;;;20.30;67.90;;;;;;5095373;28;1357;-69
2022/06/16 15:03:42;;;;;;;;;;;20.30;68.00;;;;;;5096047;28;1262;-70
2022/06/16 15:06:08;;;;;;;;;;;20.30;68.00;;;;;;5077946;28;1395;-69